Mc Kenna, Washington
Current Conditions -  °F | °C
As of 11:58 AM on Friday 31 Oct 2014 (Local Time) from KGRF Reporting Station
Drizzle Drizzle  
Wind Chill: 51°   Ceiling: 4400
Heat Index: 51°   Visibility: 10mi
Dew Point: 51°   Wind: 6mph
Humidity: 99%   Direction: 200°SSW
Pressure: 29.82"   Gusts: NA
Location:  46.9238°N, 122.553°W
Report Text: KGRF 311858Z AUTO 20005KT 10SM DZ BKN044 OVC055 11/11 A2982 RMK AO2 RAE1756DZB1756 SLP102 P0000 T01070105 $
Loading
Personal Weather Stations






























Interactive Weather Map
Tropical Storm Tracking
New forecast layout! Learn more

10-Day Weather Forecast

Advertisements
Track Severe Weather on mobile